Time;durP1;ratioP1;P1;durP2;ratioP2;P2;SDS_P1;SDS_P2;PMS_P1;PMS_P2;Temp;Humidity;BMP_temperature;BMP_pressure;BME280_temperature;BME280_humidity;BME280_pressure;Samples;Min_cycle;Max_cycle;Signal;HPM_P1;HPM_P2
2021/07/16 00:03:19;;;;;;;5.55;2.53;;;;;;;20.74;67.50;98306.56;5129142;27;20383;-70
2021/07/16 00:05:45;;;;;;;6.15;2.55;;;;;;;20.53;69.02;98330.84;5118754;27;20031;-70
2021/07/16 00:08:10;;;;;;;8.45;4.22;;;;;;;20.26;68.22;98326.28;5119782;28;20016;-69
2021/07/16 00:10:35;;;;;;;7.45;4.72;;;;;;;20.11;68.53;98344.63;5117802;28;20443;-70
2021/07/16 00:13:01;;;;;;;6.53;3.72;;;;;;;19.98;69.85;98325.25;5119326;27;20049;-70
2021/07/16 00:15:26;;;;;;;5.90;4.03;;;;;;;19.92;69.31;98296.13;5119191;28;20050;-70
2021/07/16 00:17:51;;;;;;;6.75;4.15;;;;;;;19.90;69.43;98265.84;5117959;28;20020;-70
2021/07/16 00:20:17;;;;;;;11.43;4.78;;;;;;;19.95;69.90;98258.41;5119731;28;20016;-70
2021/07/16 00:22:42;;;;;;;6.38;3.80;;;;;;;19.98;69.67;98247.34;5118518;28;20024;-70
2021/07/16 00:25:09;;;;;;;7.28;3.78;;;;;;;19.97;69.80;98244.94;5118129;27;20529;-71
2021/07/16 00:27:35;;;;;;;7.60;4.45;;;;;;;19.96;69.90;98243.31;5119741;28;20464;-70
2021/07/16 00:30:01;;;;;;;6.63;4.68;;;;;;;19.92;69.41;98249.59;5118351;28;20034;-71
2021/07/16 00:32:27;;;;;;;7.50;4.80;;;;;;;19.91;69.50;98253.56;5121056;27;20460;-72
2021/07/16 00:34:52;;;;;;;9.52;4.63;;;;;;;19.93;69.62;98258.78;5119371;28;20077;-72
2021/07/16 00:37:18;;;;;;;8.02;5.18;;;;;;;19.92;69.54;98271.06;5116172;28;20012;-71
2021/07/16 00:39:44;;;;;;;7.38;4.40;;;;;;;19.87;69.74;98255.41;5117168;28;20451;-72
2021/07/16 00:42:09;;;;;;;9.40;4.68;;;;;;;19.85;69.65;98251.41;5118431;28;20175;-72
2021/07/16 00:44:36;;;;;;;9.55;4.57;;;;;;;19.79;69.62;98245.28;5116912;27;20008;-72
2021/07/16 00:47:04;;;;;;;7.30;4.32;;;;;;;19.79;69.49;98245.28;5118382;27;20019;-72
2021/07/16 00:49:30;;;;;;;11.07;5.95;;;;;;;19.78;69.63;98250.06;5118332;28;20027;-71
2021/07/16 00:51:56;;;;;;;6.35;4.50;;;;;;;19.78;69.47;98249.25;5116364;27;20748;-71
2021/07/16 00:54:22;;;;;;;5.45;4.55;;;;;;;19.78;69.62;98249.25;5118338;27;20076;-72
2021/07/16 00:56:47;;;;;;;7.88;4.55;;;;;;;19.83;69.70;98242.59;5115892;28;20122;-72
2021/07/16 00:59:14;;;;;;;6.32;4.65;;;;;;;19.86;69.79;98244.66;5118409;28;20450;-71
2021/07/16 01:01:42;;;;;;;6.45;4.65;;;;;;;19.89;69.77;98247.53;5112506;28;20043;-71
2021/07/16 01:04:08;;;;;;;8.75;4.78;;;;;;;19.93;69.73;98242.06;5104291;27;20020;-72
2021/07/16 01:06:34;;;;;;;8.10;5.63;;;;;;;19.98;69.73;98235.41;5104854;28;20030;-72
2021/07/16 01:08:59;;;;;;;7.78;4.72;;;;;;;19.98;69.54;98236.19;5102733;28;20016;-72
2021/07/16 01:11:25;;;;;;;6.85;4.70;;;;;;;19.99;69.77;98232.25;5104382;28;20077;-72
2021/07/16 01:13:51;;;;;;;9.40;5.15;;;;;;;19.95;69.68;98217.47;5104285;28;20053;-72
2021/07/16 01:16:16;;;;;;;8.07;5.93;;;;;;;19.96;69.73;98227.44;5102586;28;20074;-72
2021/07/16 01:18:43;;;;;;;8.35;5.85;;;;;;;19.95;69.33;98227.78;5103016;28;20023;-72
2021/07/16 01:21:08;;;;;;;9.25;5.78;;;;;;;19.89;69.53;98221.72;5104041;28;20030;-71
2021/07/16 01:23:34;;;;;;;9.23;5.60;;;;;;;19.83;69.71;98220.34;5103191;28;20659;-71
2021/07/16 01:26:00;;;;;;;7.05;5.90;;;;;;;19.79;69.76;98221.06;5098999;28;20057;-72
2021/07/16 01:28:26;;;;;;;12.68;6.55;;;;;;;19.75;70.11;98222.19;5104012;28;20012;-71
2021/07/16 01:30:53;;;;;;;10.00;6.10;;;;;;;19.72;69.97;98217.34;5104419;28;20473;-72
2021/07/16 01:33:19;;;;;;;10.93;6.63;;;;;;;19.68;70.08;98211.69;5101599;28;20481;-72
2021/07/16 01:35:45;;;;;;;9.85;6.60;;;;;;;19.62;70.32;98213.94;5104292;28;20432;-72
2021/07/16 01:38:11;;;;;;;11.48;7.07;;;;;;;19.58;70.30;98217.78;5104336;28;20051;-71
2021/07/16 01:40:37;;;;;;;11.73;6.93;;;;;;;19.57;70.78;98216.19;5102714;28;20020;-71
2021/07/16 01:43:05;;;;;;;13.43;7.75;;;;;;;19.59;70.77;98223.00;5104345;28;20415;-72
2021/07/16 01:45:37;;;;;;;13.25;7.95;;;;;;;19.64;70.74;98225.53;5104251;28;20070;-72
2021/07/16 01:48:14;;;;;;;10.70;7.65;;;;;;;19.70;70.54;98234.38;5100797;28;20034;-72
2021/07/16 01:50:48;;;;;;;11.73;7.35;;;;;;;19.70;70.67;98230.81;5102351;28;20028;-72
2021/07/16 01:53:15;;;;;;;9.85;6.95;;;;;;;19.68;70.55;98208.09;5102729;28;20106;-72
2021/07/16 01:55:41;;;;;;;10.20;6.78;;;;;;;19.70;70.68;98203.78;5099994;28;20823;-72
2021/07/16 01:58:09;;;;;;;11.18;7.00;;;;;;;19.71;70.56;98205.38;5102271;28;20030;-72
2021/07/16 02:00:38;;;;;;;13.48;8.93;;;;;;;19.73;70.53;98199.47;5104666;28;20069;-72
2021/07/16 02:03:06;;;;;;;12.63;8.52;;;;;;;19.70;70.65;98194.63;5099858;28;20396;-73
2021/07/16 02:05:33;;;;;;;13.13;9.48;;;;;;;19.64;70.60;98200.47;5102779;28;20043;-73
2021/07/16 02:08:06;;;;;;;17.00;10.43;;;;;;;19.62;70.82;98197.25;5104334;28;20024;-72
2021/07/16 02:10:32;;;;;;;15.85;10.48;;;;;;;19.63;71.00;98192.47;5102268;28;20388;-72
2021/07/16 02:12:59;;;;;;;17.58;10.98;;;;;;;19.64;71.03;98192.13;5101974;28;20040;-72
2021/07/16 02:15:28;;;;;;;18.55;12.85;;;;;;;19.67;71.47;98195.38;5102474;28;20027;-72
2021/07/16 02:17:53;;;;;;;19.42;12.65;;;;;;;19.72;71.58;98192.28;5103627;28;20037;-72
2021/07/16 02:20:20;;;;;;;18.13;12.50;;;;;;;19.75;71.47;98195.16;5101908;28;20073;-72
2021/07/16 02:22:45;;;;;;;18.90;12.35;;;;;;;19.81;71.73;98195.66;5103103;28;20031;-73
2021/07/16 02:25:12;;;;;;;19.75;13.48;;;;;;;19.84;72.38;98191.34;5104126;28;20051;-72
2021/07/16 02:27:37;;;;;;;19.40;13.43;;;;;;;19.90;71.70;98196.28;5104103;28;20054;-72
2021/07/16 02:30:05;;;;;;;22.00;15.02;;;;;;;19.94;72.14;98185.25;5103610;28;20016;-73
2021/07/16 02:32:31;;;;;;;19.17;13.30;;;;;;;19.98;71.83;98185.31;5102970;28;20091;-73
2021/07/16 02:34:56;;;;;;;19.55;13.98;;;;;;;20.01;71.82;98184.56;5101539;28;20054;-72
2021/07/16 02:37:21;;;;;;;19.60;14.80;;;;;;;20.02;72.03;98186.19;5103687;28;20423;-73
2021/07/16 02:39:47;;;;;;;19.10;13.85;;;;;;;20.07;71.81;98185.91;5102669;28;20016;-73
2021/07/16 02:42:12;;;;;;;19.58;13.85;;;;;;;20.07;71.83;98197.81;5104414;28;20415;-73
2021/07/16 02:44:37;;;;;;;21.05;13.95;;;;;;;20.13;71.72;98201.13;5101590;28;20008;-73
2021/07/16 02:47:03;;;;;;;21.02;14.85;;;;;;;20.15;71.74;98201.56;5103311;28;20106;-73
2021/07/16 02:49:28;;;;;;;22.42;14.88;;;;;;;20.17;71.68;98204.81;5102837;28;20027;-72
2021/07/16 02:51:54;;;;;;;20.90;14.30;;;;;;;20.21;71.60;98202.06;5100418;28;20072;-73
2021/07/16 02:54:19;;;;;;;21.83;15.30;;;;;;;20.22;72.23;98200.91;5103405;28;20027;-73
2021/07/16 02:56:45;;;;;;;16.02;12.15;;;;;;;20.22;71.70;98212.84;5102133;28;20047;-72
2021/07/16 02:59:10;;;;;;;18.13;13.02;;;;;;;20.20;71.95;98208.81;5102069;28;20376;-73
2021/07/16 03:01:53;;;;;;;21.63;13.05;;;;;;;20.14;71.73;98216.66;5100020;28;20044;-73
2021/07/16 03:04:18;;;;;;;19.90;13.25;;;;;;;20.15;72.00;98217.47;5098752;28;20183;-73
2021/07/16 03:06:43;;;;;;;17.63;13.25;;;;;;;20.13;71.69;98211.44;5102531;28;20027;-73
2021/07/16 03:09:09;;;;;;;19.33;13.43;;;;;;;20.12;72.01;98210.66;5102172;28;20028;-73
2021/07/16 03:11:36;;;;;;;16.95;13.25;;;;;;;20.16;71.96;98217.13;5101068;28;20024;-73
2021/07/16 03:14:01;;;;;;;19.48;13.50;;;;;;;20.16;71.91;98224.66;5100335;28;20083;-73
2021/07/16 03:16:27;;;;;;;16.48;12.60;;;;;;;20.16;71.91;98219.06;5101889;28;20020;-73
2021/07/16 03:18:52;;;;;;;17.17;12.73;;;;;;;20.15;71.86;98217.47;5101532;28;20439;-73
2021/07/16 03:21:17;;;;;;;20.67;12.73;;;;;;;20.15;72.05;98228.59;5103021;28;20050;-73
2021/07/16 03:23:42;;;;;;;23.27;16.08;;;;;;;20.13;71.88;98220.63;5100888;28;20111;-73
2021/07/16 03:26:09;;;;;;;22.27;15.25;;;;;;;20.16;72.10;98224.66;5101867;28;20488;-73
2021/07/16 03:28:34;;;;;;;25.65;15.15;;;;;;;20.18;72.53;98230.66;5102622;28;20024;-73
2021/07/16 03:31:00;;;;;;;19.20;13.10;;;;;;;20.16;72.65;98247.75;5100510;28;20020;-73
2021/07/16 03:33:26;;;;;;;17.02;12.25;;;;;;;20.12;72.18;98252.41;5101888;28;20380;-73
2021/07/16 03:35:51;;;;;;;18.02;13.25;;;;;;;20.14;72.25;98257.59;5101839;28;20024;-73
2021/07/16 03:38:16;;;;;;;26.73;17.02;;;;;;;20.14;72.18;98254.81;5099203;28;20028;-72
2021/07/16 03:40:42;;;;;;;22.58;14.52;;;;;;;20.11;72.26;98261.94;5102294;28;20122;-73
2021/07/16 03:43:07;;;;;;;21.52;14.00;;;;;;;20.06;72.22;98259.44;5101271;28;20020;-73
2021/07/16 03:45:33;;;;;;;19.88;13.85;;;;;;;20.06;72.13;98263.03;5101227;28;20361;-73
2021/07/16 03:47:59;;;;;;;21.20;13.43;;;;;;;20.07;72.53;98258.28;5112150;28;20026;-72
2021/07/16 03:50:24;;;;;;;21.77;14.45;;;;;;;20.06;72.23;98251.09;5112576;28;20110;-72
2021/07/16 03:52:51;;;;;;;21.85;15.45;;;;;;;20.04;72.25;98261.78;5111517;28;20032;-73
2021/07/16 03:55:16;;;;;;;25.90;15.98;;;;;;;20.02;72.22;98259.34;5112917;28;20027;-73
2021/07/16 03:57:44;;;;;;;22.08;15.27;;;;;;;20.03;72.48;98255.41;5112735;28;20020;-73
2021/07/16 04:00:11;;;;;;;22.75;15.15;;;;;;;20.03;72.32;98249.03;5112848;28;20032;-72
2021/07/16 04:02:36;;;;;;;24.67;16.83;;;;;;;20.02;72.50;98245.44;5112306;28;20082;-73
2021/07/16 04:05:02;;;;;;;23.45;16.17;;;;;;;20.04;72.30;98250.66;5111425;28;20059;-72
2021/07/16 04:07:30;;;;;;;28.70;16.83;;;;;;;20.04;72.18;98257.00;5112697;28;20354;-73
2021/07/16 04:09:56;;;;;;;27.35;17.55;;;;;;;20.06;72.30;98254.66;5112502;28;20033;-73
2021/07/16 04:12:22;;;;;;;29.02;19.35;;;;;;;20.06;72.39;98265.00;5112072;28;20035;-73
2021/07/16 04:14:50;;;;;;;26.88;17.38;;;;;;;20.06;72.64;98260.25;5112757;28;20468;-73
2021/07/16 04:17:17;;;;;;;28.20;17.75;;;;;;;20.10;72.61;98273.44;5112987;28;20028;-73
2021/07/16 04:19:44;;;;;;;29.65;18.77;;;;;;;20.10;72.50;98271.47;5112684;28;20479;-73
2021/07/16 04:22:10;;;;;;;30.90;18.55;;;;;;;20.11;72.54;98270.28;5112698;28;20031;-73
2021/07/16 04:24:37;;;;;;;32.55;18.85;;;;;;;20.12;72.36;98271.91;5112788;28;20012;-72
2021/07/16 04:27:03;;;;;;;32.67;19.63;;;;;;;20.13;72.57;98273.53;5112863;28;20110;-73
2021/07/16 04:29:29;;;;;;;32.55;20.00;;;;;;;20.13;72.55;98269.91;5113036;28;20031;-73
2021/07/16 04:31:54;;;;;;;30.00;18.30;;;;;;;20.08;72.50;98273.81;5112979;28;20504;-73
2021/07/16 04:34:20;;;;;;;26.15;17.85;;;;;;;20.04;72.36;98278.50;5112637;28;20019;-73
2021/07/16 04:36:45;;;;;;;28.83;17.65;;;;;;;20.00;72.29;98278.41;5112619;28;20016;-73
2021/07/16 04:39:12;;;;;;;31.95;18.90;;;;;;;19.96;72.42;98280.31;5115509;28;20020;-73
2021/07/16 04:41:38;;;;;;;31.92;18.02;;;;;;;19.95;72.74;98283.44;5116690;27;20032;-73
2021/07/16 04:44:03;;;;;;;32.53;20.25;;;;;;;19.91;73.56;98288.94;5116533;28;20030;-73
2021/07/16 04:46:29;;;;;;;30.38;18.25;;;;;;;19.89;72.86;98289.28;5116381;28;20032;-73
2021/07/16 04:48:57;;;;;;;33.97;19.67;;;;;;;19.88;73.43;98286.84;5116306;28;20095;-73
2021/07/16 04:51:27;;;;;;;37.17;20.00;;;;;;;19.87;73.51;98286.03;5116317;28;20023;-74
2021/07/16 04:53:54;;;;;;;27.80;17.23;;;;;;;19.87;73.07;98296.38;5116363;28;20020;-73
2021/07/16 04:56:20;;;;;;;27.90;17.33;;;;;;;19.86;72.93;98303.91;5116222;28;20049;-73
2021/07/16 04:58:46;;;;;;;30.80;17.27;;;;;;;19.82;73.11;98300.22;5116131;28;20461;-73
2021/07/16 05:01:11;;;;;;;29.42;17.80;;;;;;;19.78;73.22;98296.56;5115882;28;20024;-74
2021/07/16 05:03:36;;;;;;;26.77;17.23;;;;;;;19.73;73.23;98294.06;5116033;28;20067;-73
2021/07/16 05:06:02;;;;;;;30.70;16.70;;;;;;;19.75;73.28;98300.09;5115981;28;20027;-73
2021/07/16 05:08:29;;;;;;;30.77;17.55;;;;;;;19.78;73.45;98305.72;5115906;28;20023;-73
2021/07/16 05:10:54;;;;;;;28.45;15.98;;;;;;;19.83;73.36;98295.47;5115756;28;20028;-73
2021/07/16 05:13:20;;;;;;;28.48;18.05;;;;;;;19.83;73.47;98287.13;5115947;28;20030;-72
2021/07/16 05:15:45;;;;;;;28.38;17.00;;;;;;;19.86;73.43;98305.88;5115890;28;20020;-72
2021/07/16 05:18:10;;;;;;;32.53;18.42;;;;;;;19.88;73.84;98312.72;5115929;28;20024;-73
2021/07/16 05:20:35;;;;;;;31.65;17.30;;;;;;;19.87;73.73;98308.28;5115654;27;20027;-73
2021/07/16 05:23:01;;;;;;;32.58;18.85;;;;;;;19.88;73.82;98303.56;5114573;28;20132;-73
2021/07/16 05:25:26;;;;;;;29.70;16.75;;;;;;;19.89;73.69;98311.56;5115795;28;20030;-72
2021/07/16 05:27:52;;;;;;;30.92;17.35;;;;;;;19.90;73.89;98313.16;5115532;28;20024;-73
2021/07/16 05:30:17;;;;;;;30.25;18.30;;;;;;;19.90;73.86;98312.38;5115555;28;20031;-73
2021/07/16 05:32:42;;;;;;;29.80;17.45;;;;;;;19.93;73.62;98309.66;5115401;28;20036;-73
2021/07/16 05:35:09;;;;;;;32.85;18.75;;;;;;;19.96;73.56;98312.91;5114825;28;20566;-72
2021/07/16 05:37:34;;;;;;;36.35;20.50;;;;;;;19.97;73.96;98315.31;5115273;28;20028;-73
2021/07/16 05:39:59;;;;;;;32.30;18.63;;;;;;;20.04;74.00;98309.91;5115278;28;20027;-73
2021/07/16 05:42:25;;;;;;;32.38;17.73;;;;;;;20.06;73.97;98310.34;5115443;28;20020;-72
2021/07/16 05:44:50;;;;;;;36.17;20.15;;;;;;;20.06;73.81;98310.34;5115271;28;20051;-73
2021/07/16 05:47:16;;;;;;;34.00;20.48;;;;;;;20.12;74.02;98312.84;5115242;27;20518;-73
2021/07/16 05:49:42;;;;;;;40.30;20.95;;;;;;;20.18;74.51;98328.91;5115174;28;20024;-73
2021/07/16 05:52:07;;;;;;;37.85;21.95;;;;;;;20.18;73.98;98334.47;5115023;28;20460;-73
2021/07/16 05:54:32;;;;;;;42.92;24.05;;;;;;;20.20;74.04;98334.91;5115051;28;20032;-73
2021/07/16 05:56:58;;;;;;;40.13;23.63;;;;;;;20.23;73.91;98342.53;5115126;28;20036;-73
2021/07/16 05:59:23;;;;;;;40.28;23.40;;;;;;;20.29;74.46;98358.97;5115145;28;20020;-73
2021/07/16 06:01:48;;;;;;;40.47;24.92;;;;;;;20.29;74.06;98350.59;5114672;28;20048;-73
2021/07/16 06:04:14;;;;;;;33.20;22.48;;;;;;;20.31;74.01;98354.66;5114894;28;20038;-73
2021/07/16 06:06:39;;;;;;;38.13;23.10;;;;;;;20.37;74.04;98346.81;5114796;28;20124;-73
2021/07/16 06:09:06;;;;;;;40.83;24.33;;;;;;;20.46;73.94;98341.84;5113830;28;20032;-75
2021/07/16 06:11:32;;;;;;;37.88;23.35;;;;;;;20.56;74.00;98353.59;5114565;28;20065;-73
2021/07/16 06:13:58;;;;;;;36.60;24.55;;;;;;;20.58;74.37;98349.25;5114687;28;20110;-73
2021/07/16 06:16:23;;;;;;;35.17;24.00;;;;;;;20.57;74.05;98350.41;5114731;28;20161;-73
2021/07/16 06:18:48;;;;;;;36.00;23.60;;;;;;;20.58;73.93;98346.47;5114599;28;20220;-72
2021/07/16 06:21:14;;;;;;;32.15;22.67;;;;;;;20.56;74.22;98342.44;5114435;28;20032;-72
2021/07/16 06:23:39;;;;;;;33.80;24.17;;;;;;;20.57;74.28;98353.19;5113316;28;20028;-73
2021/07/16 06:26:05;;;;;;;46.58;24.38;;;;;;;20.58;75.04;98354.81;5113114;28;20031;-73
2021/07/16 06:28:30;;;;;;;32.92;22.92;;;;;;;20.60;74.09;98354.44;5114367;27;20495;-73
2021/07/16 06:30:55;;;;;;;34.60;23.05;;;;;;;20.65;74.27;98356.94;5114272;28;20016;-73
2021/07/16 06:33:21;;;;;;;37.85;26.77;;;;;;;20.69;74.81;98360.59;5114374;28;20023;-73
2021/07/16 06:35:47;;;;;;;36.08;25.73;;;;;;;20.69;74.57;98357.81;5114263;28;20028;-72
2021/07/16 06:38:12;;;;;;;33.42;21.95;;;;;;;20.67;74.44;98354.59;5114213;28;20118;-73
2021/07/16 06:40:37;;;;;;;41.20;24.90;;;;;;;20.64;74.11;98355.31;5114190;28;20469;-72
2021/07/16 06:43:09;;;;;;;31.90;21.70;;;;;;;20.65;74.44;98346.63;5114133;28;20023;-73
2021/07/16 06:45:35;;;;;;;35.58;21.35;;;;;;;20.68;74.78;98350.63;5114236;28;20362;-72
2021/07/16 06:48:00;;;;;;;34.40;23.90;;;;;;;20.71;74.54;98344.31;5114351;28;20039;-73
2021/07/16 06:50:25;;;;;;;43.92;26.40;;;;;;;20.83;74.66;98351.75;5113950;28;20384;-72
2021/07/16 06:52:50;;;;;;;29.08;19.77;;;;;;;20.87;74.64;98352.63;5113683;28;20023;-73
2021/07/16 06:55:16;;;;;;;38.58;25.55;;;;;;;20.93;74.85;98361.53;5113888;28;20028;-73
2021/07/16 06:57:41;;;;;;;38.63;24.15;;;;;;;20.97;74.75;98359.63;5113801;28;20027;-73
2021/07/16 07:00:08;;;;;;;37.58;24.25;;;;;;;21.01;74.50;98362.47;5113571;28;20020;-73
2021/07/16 07:02:34;;;;;;;36.72;22.33;;;;;;;21.05;74.52;98361.34;5113406;28;20556;-72
2021/07/16 07:04:59;;;;;;;37.80;23.02;;;;;;;21.12;74.29;98363.47;5113787;28;20106;-73
2021/07/16 07:07:24;;;;;;;37.88;25.50;;;;;;;21.20;74.35;98365.19;5113618;28;20153;-73
2021/07/16 07:09:50;;;;;;;36.35;23.42;;;;;;;21.30;74.15;98363.81;5113074;28;20388;-73
2021/07/16 07:12:15;;;;;;;34.97;22.65;;;;;;;21.38;74.57;98354.41;5113604;28;20030;-72
2021/07/16 07:14:40;;;;;;;36.47;24.02;;;;;;;21.47;74.45;98358.91;5113504;28;20027;-73
2021/07/16 07:17:06;;;;;;;32.03;23.23;;;;;;;21.56;74.13;98360.28;5106605;28;20035;-73
2021/07/16 07:19:32;;;;;;;36.47;23.77;;;;;;;21.67;74.32;98354.91;5088892;28;20032;-73
2021/07/16 07:21:57;;;;;;;36.58;24.08;;;;;;;21.80;73.98;98355.50;5092312;28;20039;-73
2021/07/16 07:24:23;;;;;;;36.10;24.63;;;;;;;21.90;74.20;98365.22;5072377;28;20031;-72
2021/07/16 07:26:49;;;;;;;33.05;21.75;;;;;;;21.97;73.81;98365.34;5104235;28;20531;-72
2021/07/16 07:29:15;;;;;;;37.55;24.48;;;;;;;22.07;74.02;98371.47;5100666;28;20112;-72
2021/07/16 07:31:40;;;;;;;33.80;23.40;;;;;;;22.08;73.51;98359.91;5092651;28;20089;-73
2021/07/16 07:34:05;;;;;;;30.65;21.00;;;;;;;22.15;73.47;98357.22;5092477;28;20031;-73
2021/07/16 07:36:31;;;;;;;37.13;24.60;;;;;;;22.18;73.38;98350.09;5092536;28;20081;-73
2021/07/16 07:38:57;;;;;;;34.05;23.60;;;;;;;22.21;73.23;98357.69;5091098;28;20024;-72
2021/07/16 07:41:25;;;;;;;32.13;21.38;;;;;;;22.27;73.42;98361.78;5092629;28;20032;-73
2021/07/16 07:43:53;;;;;;;31.58;21.02;;;;;;;22.31;73.13;98361.84;5089647;28;20055;-73
2021/07/16 07:46:18;;;;;;;33.67;22.48;;;;;;;22.37;73.21;98357.53;5081376;28;20028;-72
2021/07/16 07:48:44;;;;;;;33.92;23.95;;;;;;;22.45;73.20;98361.25;5091111;28;20040;-72
2021/07/16 07:51:09;;;;;;;30.88;22.38;;;;;;;22.55;73.28;98355.00;5096128;28;20031;-71
2021/07/16 07:53:34;;;;;;;28.92;21.80;;;;;;;22.59;72.99;98360.63;5099095;28;20027;-71
2021/07/16 07:56:00;;;;;;;32.10;21.40;;;;;;;22.69;73.06;98367.53;5091061;28;20040;-71
2021/07/16 07:58:25;;;;;;;30.80;21.60;;;;;;;22.77;73.00;98358.06;5100086;28;20027;-71
2021/07/16 08:00:50;;;;;;;36.60;20.92;;;;;;;22.85;72.67;98354.16;5094146;28;20027;-71
2021/07/16 08:03:16;;;;;;;38.78;22.05;;;;;;;22.90;72.75;98355.81;5090847;28;20046;-72
2021/07/16 08:05:41;;;;;;;31.80;20.30;;;;;;;22.95;72.56;98361.06;5094044;28;20052;-72
2021/07/16 08:08:06;;;;;;;33.72;21.02;;;;;;;22.98;72.41;98362.31;5099596;28;20024;-70
2021/07/16 08:10:32;;;;;;;33.75;21.17;;;;;;;22.92;72.10;98370.22;5100651;28;20031;-68
2021/07/16 08:12:57;;;;;;;29.45;21.83;;;;;;;22.89;72.01;98373.78;5098579;28;20112;-70
2021/07/16 08:15:22;;;;;;;29.73;22.35;;;;;;;22.89;72.15;98370.97;5102337;28;20068;-73
2021/07/16 08:17:57;;;;;;;31.42;21.73;;;;;;;22.98;72.24;98387.47;5091158;28;20028;-73
2021/07/16 08:20:22;;;;;;;28.33;21.63;;;;;;;23.07;72.17;98387.97;5095285;28;20062;-70
2021/07/16 08:22:48;;;;;;;33.38;21.55;;;;;;;23.17;72.11;98389.28;5093117;28;20071;-70
2021/07/16 08:25:13;;;;;;;31.02;21.98;;;;;;;23.27;71.90;98390.63;5092095;28;20584;-78
2021/07/16 08:27:40;;;;;;;32.22;21.95;;;;;;;23.33;71.92;98389.88;5093674;28;20085;-71
2021/07/16 08:30:07;;;;;;;29.17;20.98;;;;;;;23.44;71.73;98394.78;5092704;28;20023;-73
2021/07/16 08:32:33;;;;;;;30.75;20.83;;;;;;;23.54;71.76;98398.88;5097285;28;20024;-72
2021/07/16 08:34:58;;;;;;;34.28;22.30;;;;;;;23.62;71.55;98398.56;5091184;28;20024;-73
2021/07/16 08:37:23;;;;;;;34.00;23.58;;;;;;;23.68;71.15;98396.22;5091984;28;20032;-72
2021/07/16 08:39:49;;;;;;;30.17;21.77;;;;;;;23.73;71.08;98395.03;5092859;28;20039;-70
2021/07/16 08:42:14;;;;;;;32.88;22.08;;;;;;;23.72;70.88;98399.03;5093843;28;20103;-69
2021/07/16 08:44:44;;;;;;;28.50;22.67;;;;;;;23.72;70.79;98399.84;5095363;28;20062;-71
2021/07/16 08:47:11;;;;;;;31.27;21.17;;;;;;;23.78;70.93;98403.91;5091007;28;20103;-71
2021/07/16 08:49:39;;;;;;;30.33;22.00;;;;;;;23.85;71.07;98405.94;5092228;28;20081;-74
2021/07/16 08:52:05;;;;;;;32.58;23.42;;;;;;;23.90;70.75;98407.59;5092839;28;20032;-69
2021/07/16 08:54:32;;;;;;;31.80;23.40;;;;;;;23.97;70.70;98396.44;5093708;28;20032;-71
2021/07/16 08:56:57;;;;;;;32.97;24.00;;;;;;;24.01;70.54;98402.91;5092402;28;20811;-74
2021/07/16 08:59:23;;;;;;;33.10;23.00;;;;;;;24.02;70.33;98398.91;5092203;28;20024;-70
2021/07/16 09:01:50;;;;;;;36.30;24.52;;;;;;;24.06;70.48;98394.16;5092683;28;20040;-69
2021/07/16 09:04:15;;;;;;;34.35;23.88;;;;;;;24.07;69.96;98397.75;5092926;28;20024;-71
2021/07/16 09:06:47;;;;;;;35.42;21.67;;;;;;;24.05;70.15;98394.53;5091765;28;20427;-70
2021/07/16 09:09:36;;;;;;;29.05;17.92;;;;;;;24.03;69.87;98389.31;5093217;28;20031;-69
2021/07/16 09:12:05;;;;;;;;;;;;;;;23.99;69.75;98388.47;5093147;28;20510;-71
2021/07/16 09:14:31;;;;;;;;;;;;;;;23.99;69.83;98380.09;5093756;28;19912;-70
2021/07/16 09:16:59;;;;;;;33.20;21.90;;;;;;;24.03;70.24;98392.13;5091530;28;19915;-72
2021/07/16 09:19:36;;;;;;;31.52;21.83;;;;;;;24.14;70.03;98388.59;5091016;28;20469;-76
2021/07/16 09:22:09;;;;;;;31.50;20.95;;;;;;;24.17;69.74;98382.22;5089753;28;20108;-75
2021/07/16 09:24:35;;;;;;;26.70;20.13;;;;;;;24.22;69.54;98384.66;5090056;28;20047;-76
2021/07/16 09:27:02;;;;;;;26.88;20.50;;;;;;;24.30;69.96;98385.50;5091215;28;20032;-75
2021/07/16 09:29:32;;;;;;;24.95;20.00;;;;;;;24.38;69.25;98379.53;5090363;28;20534;-74
2021/07/16 09:32:03;;;;;;;26.23;17.85;;;;;;;24.45;69.41;98384.41;5091215;28;20042;-76
2021/07/16 09:34:28;;;;;;;26.80;20.65;;;;;;;24.53;69.08;98386.03;5091721;28;20043;-72
2021/07/16 09:36:54;;;;;;;28.17;19.30;;;;;;;24.57;68.90;98385.25;5092417;28;20519;-73
2021/07/16 09:39:20;;;;;;;25.58;18.70;;;;;;;24.54;68.85;98386.84;5092535;28;20107;-72
2021/07/16 09:41:55;;;;;;;25.17;18.17;;;;;;;24.53;68.32;98379.63;5091854;28;20032;-72
2021/07/16 09:44:41;;;;;;;27.08;18.95;;;;;;;24.50;68.51;98384.00;5091421;28;20488;-75
2021/07/16 09:47:13;;;;;;;31.73;23.98;;;;;;;24.54;68.57;98384.03;5090754;28;20039;-73
2021/07/16 09:49:40;;;;;;;27.40;19.05;;;;;;;24.60;68.41;98382.47;5090504;28;20107;-76
2021/07/16 09:52:07;;;;;;;27.10;19.17;;;;;;;24.66;68.23;98380.09;5091666;28;20036;-82
2021/07/16 09:54:32;;;;;;;23.85;18.00;;;;;;;24.66;68.05;98380.88;5091782;28;20044;-76
2021/07/16 09:56:58;;;;;;;25.73;18.30;;;;;;;24.74;68.18;98384.56;5091020;28;20082;-73
2021/07/16 09:59:28;;;;;;;25.05;17.42;;;;;;;24.78;67.46;98385.38;5093294;28;20052;-75
2021/07/16 10:01:54;;;;;;;22.55;17.20;;;;;;;24.80;66.46;98385.78;5091577;28;20493;-80
2021/07/16 10:04:27;;;;;;;20.00;14.63;;;;;;;24.86;66.81;98383.41;5093249;28;20081;-81
2021/07/16 10:06:54;;;;;;;22.75;17.20;;;;;;;24.95;66.16;98375.44;5090590;28;20503;-80
2021/07/16 10:09:21;;;;;;;20.92;15.70;;;;;;;25.06;66.69;98369.84;5091273;28;20039;-79
2021/07/16 10:11:48;;;;;;;21.73;16.40;;;;;;;25.17;66.68;98369.88;5091561;28;20028;-78
2021/07/16 10:14:15;;;;;;;25.40;18.00;;;;;;;25.20;66.26;98376.69;5091736;28;20028;-74
2021/07/16 10:16:48;;;;;;;25.60;19.13;;;;;;;25.18;65.90;98377.09;5090428;28;20091;-76
2021/07/16 10:19:16;;;;;;;28.05;18.08;;;;;;;25.19;65.91;98373.06;5091000;28;20027;-76
2021/07/16 10:21:46;;;;;;;26.93;17.40;;;;;;;25.19;65.95;98373.06;5091350;28;20020;-80
2021/07/16 10:24:14;;;;;;;21.70;16.83;;;;;;;25.23;65.64;98370.28;5091118;28;20343;-78
2021/07/16 10:26:41;;;;;;;25.80;16.92;;;;;;;25.23;65.81;98359.06;5092082;28;20028;-77
2021/07/16 10:29:34;;;;;;;20.83;16.98;;;;;;;25.26;65.78;98373.09;5091362;28;20492;-77
2021/07/16 10:31:59;;;;;;;26.50;18.70;;;;;;;25.36;66.09;98377.13;5085461;28;20044;-78
2021/07/16 10:34:27;;;;;;;23.70;17.25;;;;;;;25.42;65.38;98369.91;5091116;28;20039;-71
2021/07/16 10:36:56;;;;;;;21.08;14.93;;;;;;;25.45;64.87;98373.16;5086829;28;20111;-77
2021/07/16 10:39:38;;;;;;;21.50;15.27;;;;;;;25.41;64.98;98373.13;5087013;28;20103;-78
2021/07/16 10:42:25;;;;;;;23.20;16.58;;;;;;;25.44;64.97;98374.34;5089351;28;20032;-80
2021/07/16 10:44:59;;;;;;;24.85;15.82;;;;;;;25.49;64.48;98377.56;5086957;28;20032;-79
2021/07/16 10:47:51;;;;;;;23.40;15.27;;;;;;;25.56;64.34;98380.38;5088831;28;20052;-80
2021/07/16 10:50:28;;;;;;;19.40;14.50;;;;;;;25.69;64.33;98386.41;5089808;28;20088;-81
2021/07/16 10:52:54;;;;;;;23.40;15.07;;;;;;;25.80;64.24;98378.00;5089234;28;20042;-84
2021/07/16 10:55:39;;;;;;;30.02;16.80;;;;;;;25.83;62.96;98373.56;5089643;28;20428;-87
2021/07/16 10:58:25;;;;;;;21.45;14.70;;;;;;;25.74;62.92;98374.00;5090438;28;20024;-82
2021/07/16 11:00:55;;;;;;;18.88;14.57;;;;;;;25.67;62.49;98373.97;5090470;28;20028;-78
2021/07/16 11:03:22;;;;;;;20.92;14.50;;;;;;;25.70;63.04;98373.19;5090019;28;20048;-82
2021/07/16 11:05:47;;;;;;;20.15;15.15;;;;;;;25.81;63.09;98376.81;5090701;28;20051;-79
2021/07/16 11:08:35;;;;;;;21.40;14.43;;;;;;;25.93;62.79;98380.38;5090591;28;20036;-87
2021/07/16 11:11:01;;;;;;;19.85;15.10;;;;;;;26.01;62.03;98373.56;5090119;28;20039;-85
2021/07/16 11:14:02;;;;;;;21.70;14.93;;;;;;;26.12;61.78;98373.53;5088207;28;20482;-84
2021/07/16 11:16:27;;;;;;;21.17;14.82;;;;;;;26.10;60.82;98375.94;5087133;28;20488;-85
2021/07/16 11:18:55;;;;;;;21.88;15.15;;;;;;;26.13;62.15;98378.00;5087544;28;20036;-87
2021/07/16 11:21:42;;;;;;;23.47;15.20;;;;;;;26.19;61.87;98375.59;5090927;28;20043;-83